Time,TemperatureF,DewpointF,PressureIn,WindDirection,WindDirectionDegrees,WindSpeedMPH,WindSpeedGustMPH,Humidity,HourlyPrecipIn,Conditions,Clouds,dailyrainin,SoftwareType,DateUTC
2013-03-03 00:01:00,52.5,46.8,29.86,East,86,0.0,0.0,81,0.00,,,0.00,Wunderground v.1.15,2013-03-03 08:01:00,
2013-03-03 00:11:00,52.3,46.3,29.86,East,86,0.0,0.0,80,0.00,,,0.00,Wunderground v.1.15,2013-03-03 08:11:00,
2013-03-03 00:21:00,52.0,46.0,29.86,East,86,0.0,0.0,80,0.00,,,0.00,Wunderground v.1.15,2013-03-03 08:21:00,
2013-03-03 00:31:00,51.8,46.5,29.86,East,86,0.0,0.0,82,0.00,,,0.00,Wunderground v.1.15,2013-03-03 08:31:00,
2013-03-03 00:41:00,51.6,46.3,29.86,East,86,0.0,0.0,82,0.00,,,0.00,Wunderground v.1.15,2013-03-03 08:41:00,
2013-03-03 00:51:00,51.5,46.5,29.86,East,86,0.0,0.0,83,0.00,,,0.00,Wunderground v.1.15,2013-03-03 08:51:00,
2013-03-03 00:56:00,51.5,46.8,29.86,East,86,0.0,0.0,84,0.00,,,0.00,Wunderground v.1.15,2013-03-03 08:56:00,
2013-03-03 01:01:00,51.7,47.3,29.86,East,86,0.0,0.0,85,0.00,,,0.00,Wunderground v.1.15,2013-03-03 09:01:00,
2013-03-03 01:11:00,51.8,47.4,29.86,East,86,0.0,0.0,85,0.00,,,0.00,Wunderground v.1.15,2013-03-03 09:11:00,
2013-03-03 01:21:00,51.9,47.5,29.86,East,86,0.0,0.0,85,0.00,,,0.00,Wunderground v.1.15,2013-03-03 09:21:00,
2013-03-03 01:31:00,52.0,47.6,29.86,East,86,0.0,0.0,85,0.00,,,0.00,Wunderground v.1.15,2013-03-03 09:31:00,
2013-03-03 01:41:00,52.1,47.7,29.86,East,86,0.0,0.0,85,0.00,,,0.00,Wunderground v.1.15,2013-03-03 09:41:00,
2013-03-03 01:51:00,52.0,47.3,29.87,East,86,0.0,0.0,84,0.00,,,0.00,Wunderground v.1.15,2013-03-03 09:51:00,
2013-03-03 02:01:00,51.9,47.2,29.87,East,86,0.0,0.0,84,0.00,,,0.00,Wunderground v.1.15,2013-03-03 10:01:00,
2013-03-03 02:06:00,51.7,46.7,29.87,ESE,114,0.0,0.0,83,0.00,,,0.00,Wunderground v.1.15,2013-03-03 10:06:00,
2013-03-03 02:15:00,51.5,46.5,29.86,East,97,0.0,0.0,83,0.00,,,0.00,Wunderground v.1.15,2013-03-03 10:15:00,
2013-03-03 02:26:00,51.3,46.3,29.86,East,82,0.0,0.0,83,0.00,,,0.00,Wunderground v.1.15,2013-03-03 10:26:00,
2013-03-03 02:35:00,51.1,46.1,29.86,East,82,0.0,0.0,83,0.00,,,0.00,Wunderground v.1.15,2013-03-03 10:35:00,
2013-03-03 02:45:00,51.0,46.0,29.86,East,84,0.0,0.0,83,0.00,,,0.00,Wunderground v.1.15,2013-03-03 10:45:00,
2013-03-03 02:55:00,50.8,45.8,29.86,East,84,0.0,0.0,83,0.00,,,0.00,Wunderground v.1.15,2013-03-03 10:55:00,
2013-03-03 03:01:00,50.8,46.1,29.86,East,84,0.0,0.0,84,0.00,,,0.00,Wunderground v.1.15,2013-03-03 11:01:00,
2013-03-03 03:10:00,50.6,45.9,29.86,East,84,0.0,0.0,84,0.00,,,0.00,Wunderground v.1.15,2013-03-03 11:10:00,
2013-03-03 03:20:00,50.4,45.7,29.86,East,84,0.0,0.0,84,0.00,,,0.00,Wunderground v.1.15,2013-03-03 11:20:00,
2013-03-03 03:30:00,50.2,45.6,29.86,East,84,0.0,0.0,84,0.00,,,0.00,Wunderground v.1.15,2013-03-03 11:30:00,
2013-03-03 03:40:00,49.9,45.3,29.86,ESE,120,0.0,0.0,84,0.00,,,0.00,Wunderground v.1.15,2013-03-03 11:40:00,
2013-03-03 03:46:00,49.8,45.2,29.86,SE,124,0.0,0.0,84,0.00,,,0.00,Wunderground v.1.15,2013-03-03 11:46:00,
2013-03-03 03:51:00,49.7,45.1,29.86,SE,125,0.0,0.0,84,0.00,,,0.00,Wunderground v.1.15,2013-03-03 11:51:00,
2013-03-03 04:01:00,49.6,45.0,29.87,East,84,0.0,0.0,84,0.00,,,0.00,Wunderground v.1.15,2013-03-03 12:01:00,
2013-03-03 04:11:00,49.5,45.2,29.86,South,184,0.0,0.0,85,0.00,,,0.00,Wunderground v.1.15,2013-03-03 12:11:00,
2013-03-03 04:16:00,49.4,45.1,29.86,South,184,0.0,0.0,85,0.00,,,0.00,Wunderground v.1.15,2013-03-03 12:16:00,
2013-03-03 04:26:00,49.2,44.9,29.86,South,173,0.0,0.0,85,0.00,,,0.00,Wunderground v.1.15,2013-03-03 12:26:00,
2013-03-03 04:36:00,49.2,44.9,29.86,ESE,107,0.0,0.0,85,0.00,,,0.00,Wunderground v.1.15,2013-03-03 12:36:00,
2013-03-03 04:46:00,49.0,44.7,29.86,ESE,107,0.0,0.0,85,0.00,,,0.00,Wunderground v.1.15,2013-03-03 12:46:00,
2013-03-03 04:56:00,48.9,44.6,29.86,ESE,107,0.0,0.0,85,0.00,,,0.00,Wunderground v.1.15,2013-03-03 12:56:00,
2013-03-03 05:01:00,48.8,44.8,29.86,ESE,107,0.0,0.0,86,0.00,,,0.00,Wunderground v.1.15,2013-03-03 13:01:00,
2013-03-03 05:11:00,48.7,44.7,29.86,ESE,107,0.0,0.0,86,0.00,,,0.00,Wunderground v.1.15,2013-03-03 13:11:00,
2013-03-03 05:16:00,48.7,44.7,29.86,ESE,107,0.0,0.0,86,0.00,,,0.00,Wunderground v.1.15,2013-03-03 13:16:00,
2013-03-03 05:26:00,48.5,44.5,29.87,ESE,107,0.0,0.0,86,0.00,,,0.00,Wunderground v.1.15,2013-03-03 13:26:00,
2013-03-03 05:36:00,48.4,44.4,29.87,ESE,107,0.0,0.0,86,0.00,,,0.00,Wunderground v.1.15,2013-03-03 13:36:00,
2013-03-03 05:46:00,48.3,44.3,29.87,ESE,107,0.0,0.0,86,0.00,,,0.00,Wunderground v.1.15,2013-03-03 13:46:00,
2013-03-03 05:56:00,48.2,44.2,29.87,ESE,107,0.0,0.0,86,0.00,,,0.00,Wunderground v.1.15,2013-03-03 13:56:00,
2013-03-03 06:01:00,48.1,44.1,29.87,ESE,107,0.0,0.0,86,0.00,,,0.00,Wunderground v.1.15,2013-03-03 14:01:00,
2013-03-03 06:11:00,48.1,44.4,29.87,ESE,107,0.0,0.0,87,0.00,,,0.00,Wunderground v.1.15,2013-03-03 14:11:00,
2013-03-03 06:21:00,47.9,43.9,29.86,ESE,107,0.0,0.0,86,0.00,,,0.00,Wunderground v.1.15,2013-03-03 14:21:00,
2013-03-03 06:31:00,47.9,43.9,29.86,ESE,107,0.0,0.0,86,0.00,,,0.00,Wunderground v.1.15,2013-03-03 14:31:00,
2013-03-03 06:41:00,47.8,44.1,29.86,ESE,107,0.0,0.0,87,0.00,,,0.00,Wunderground v.1.15,2013-03-03 14:41:00,
2013-03-03 06:46:00,47.7,44.0,29.86,ESE,107,0.0,0.0,87,0.00,,,0.00,Wunderground v.1.15,2013-03-03 14:46:00,
2013-03-03 06:56:00,47.6,43.9,29.87,ESE,107,0.0,0.0,87,0.00,,,0.00,Wunderground v.1.15,2013-03-03 14:56:00,
2013-03-03 07:01:00,47.5,43.8,29.87,ESE,107,0.0,0.0,87,0.00,,,0.00,Wunderground v.1.15,2013-03-03 15:01:00,
2013-03-03 07:11:00,47.4,43.7,29.87,ESE,107,0.0,0.0,87,0.00,,,0.00,Wunderground v.1.15,2013-03-03 15:11:00,
2013-03-03 07:20:00,47.4,43.7,29.87,ESE,107,0.0,0.0,87,0.00,,,0.00,Wunderground v.1.15,2013-03-03 15:20:00,
2013-03-03 07:26:00,47.4,43.7,29.87,ESE,107,0.0,0.0,87,0.00,,,0.00,Wunderground v.1.15,2013-03-03 15:26:00,
2013-03-03 07:36:00,47.4,44.0,29.86,ESE,107,0.0,0.0,88,0.00,,,0.00,Wunderground v.1.15,2013-03-03 15:36:00,
2013-03-03 07:46:00,47.4,44.0,29.87,ESE,107,0.0,0.0,88,0.00,,,0.00,Wunderground v.1.15,2013-03-03 15:46:00,
2013-03-03 07:55:00,48.4,45.6,29.87,ESE,107,0.0,0.0,90,0.00,,,0.00,Wunderground v.1.15,2013-03-03 15:55:00,
2013-03-03 08:01:00,49.5,46.4,29.87,ESE,107,0.0,0.0,89,0.00,,,0.00,Wunderground v.1.15,2013-03-03 16:01:00,
2013-03-03 08:11:00,50.4,46.7,29.87,ESE,107,0.0,0.0,87,0.00,,,0.00,Wunderground v.1.15,2013-03-03 16:11:00,
2013-03-03 08:20:00,51.3,46.9,29.86,ESE,107,0.0,0.0,85,0.00,,,0.00,Wunderground v.1.15,2013-03-03 16:20:00,
2013-03-03 08:31:00,51.8,47.4,29.87,ESE,107,0.0,0.0,85,0.00,,,0.00,Wunderground v.1.15,2013-03-03 16:31:00,
2013-03-03 08:40:00,52.2,47.2,29.86,SW,232,0.0,0.0,83,0.00,,,0.00,Wunderground v.1.15,2013-03-03 16:40:00,
2013-03-03 08:51:00,51.5,46.8,29.86,SW,232,0.0,0.0,84,0.00,,,0.00,Wunderground v.1.15,2013-03-03 16:51:00,
2013-03-03 09:01:00,53.1,48.4,29.86,SW,232,0.0,0.0,84,0.00,,,0.00,Wunderground v.1.15,2013-03-03 17:01:00,
2013-03-03 09:10:00,53.9,47.9,29.86,NE,34,0.0,0.0,80,0.00,,,0.00,Wunderground v.1.15,2013-03-03 17:10:00,
2013-03-03 09:20:00,55.6,50.2,29.86,NE,34,0.0,0.0,82,0.00,,,0.00,Wunderground v.1.15,2013-03-03 17:20:00,
2013-03-03 09:30:00,56.3,48.8,29.87,ENE,74,0.0,0.0,76,0.00,,,0.00,Wunderground v.1.15,2013-03-03 17:30:00,
2013-03-03 09:40:00,55.3,47.9,29.87,ENE,74,0.0,0.0,76,0.00,,,0.00,Wunderground v.1.15,2013-03-03 17:40:00,
2013-03-03 09:46:00,57.0,49.5,29.86,ENE,70,0.0,0.0,76,0.00,,,0.00,Wunderground v.1.15,2013-03-03 17:46:00,
2013-03-03 09:51:00,57.5,49.6,29.86,ENE,69,0.0,0.0,75,0.00,,,0.00,Wunderground v.1.15,2013-03-03 17:51:00,
2013-03-03 10:01:00,57.7,48.4,29.86,ENE,76,0.0,0.0,71,0.00,,,0.00,Wunderground v.1.15,2013-03-03 18:01:00,
2013-03-03 10:11:00,58.8,49.4,29.86,ENE,76,0.0,0.0,71,0.00,,,0.00,Wunderground v.1.15,2013-03-03 18:11:00,
2013-03-03 10:16:00,59.3,48.3,29.86,ENE,78,0.0,0.0,67,0.00,,,0.00,Wunderground v.1.15,2013-03-03 18:16:00,
2013-03-03 10:26:00,60.4,50.2,29.86,ENE,76,0.0,0.0,69,0.00,,,0.00,Wunderground v.1.15,2013-03-03 18:26:00,
2013-03-03 10:36:00,60.7,49.7,29.86,East,80,0.0,0.0,67,0.00,,,0.00,Wunderground v.1.15,2013-03-03 18:36:00,
2013-03-03 10:46:00,61.3,51.0,29.85,South,173,0.0,1.0,69,0.00,,,0.00,Wunderground v.1.15,2013-03-03 18:46:00,
2013-03-03 10:56:00,62.3,51.2,29.85,ESE,121,0.0,0.0,67,0.00,,,0.00,Wunderground v.1.15,2013-03-03 18:56:00,
2013-03-03 11:01:00,62.5,51.4,29.85,South,175,0.0,0.0,67,0.00,,,0.00,Wunderground v.1.15,2013-03-03 19:01:00,
2013-03-03 11:11:00,62.7,47.2,29.85,ESE,123,0.0,0.0,57,0.00,,,0.00,Wunderground v.1.15,2013-03-03 19:11:00,
2013-03-03 11:21:00,63.2,47.2,29.85,SSE,165,0.0,0.0,56,0.00,,,0.00,Wunderground v.1.15,2013-03-03 19:21:00,
2013-03-03 11:26:00,64.3,49.7,29.85,ESE,103,0.0,0.0,59,0.00,,,0.00,Wunderground v.1.15,2013-03-03 19:26:00,
2013-03-03 11:36:00,62.9,48.3,29.84,South,170,0.0,1.0,59,0.00,,,0.00,Wunderground v.1.15,2013-03-03 19:36:00,
2013-03-03 11:46:00,64.8,47.3,29.84,East,89,1.0,1.0,53,0.00,,,0.00,Wunderground v.1.15,2013-03-03 19:46:00,
2013-03-03 11:56:00,64.6,45.5,29.83,NNE,16,0.0,0.0,50,0.00,,,0.00,Wunderground v.1.15,2013-03-03 19:56:00,
2013-03-03 12:01:00,65.0,44.8,29.83,ENE,62,1.0,1.0,48,0.00,,,0.00,Wunderground v.1.15,2013-03-03 20:01:00,
2013-03-03 12:11:00,64.4,45.9,29.83,WNW,299,0.0,0.0,51,0.00,,,0.00,Wunderground v.1.15,2013-03-03 20:11:00,
2013-03-03 12:21:00,64.5,45.4,29.83,ENE,70,0.0,0.0,50,0.00,,,0.00,Wunderground v.1.15,2013-03-03 20:21:00,
2013-03-03 12:31:00,64.7,45.6,29.82,NNE,20,1.0,1.0,50,0.00,,,0.00,Wunderground v.1.15,2013-03-03 20:31:00,
2013-03-03 12:41:00,65.7,47.6,29.82,NNE,16,0.0,0.0,52,0.00,,,0.00,Wunderground v.1.15,2013-03-03 20:41:00,
2013-03-03 12:51:00,64.7,45.6,29.81,South,176,0.0,0.0,50,0.00,,,0.00,Wunderground v.1.15,2013-03-03 20:51:00,
2013-03-03 13:01:00,64.6,46.1,29.81,NNE,28,0.0,0.0,51,0.00,,,0.00,Wunderground v.1.15,2013-03-03 21:01:00,
2013-03-03 13:11:00,64.9,44.7,29.80,North,350,0.0,0.0,48,0.00,,,0.00,Wunderground v.1.15,2013-03-03 21:11:00,
2013-03-03 13:20:00,64.5,44.9,29.80,SSW,192,0.0,1.0,49,0.00,,,0.00,Wunderground v.1.15,2013-03-03 21:20:00,
2013-03-03 13:26:00,64.6,46.1,29.80,East,85,0.0,1.0,51,0.00,,,0.00,Wunderground v.1.15,2013-03-03 21:26:00,
2013-03-03 13:35:00,64.6,44.5,29.79,East,85,0.0,0.0,48,0.00,,,0.00,Wunderground v.1.15,2013-03-03 21:35:00,
2013-03-03 13:46:00,64.5,46.0,29.79,NE,38,0.0,0.0,51,0.00,,,0.00,Wunderground v.1.15,2013-03-03 21:46:00,
2013-03-03 13:55:00,64.4,44.8,29.79,North,10,0.0,0.0,49,0.00,,,0.00,Wunderground v.1.15,2013-03-03 21:55:00,
2013-03-03 14:01:00,64.4,45.9,29.79,North,355,0.0,0.0,51,0.00,,,0.00,Wunderground v.1.15,2013-03-03 22:01:00,
2013-03-03 14:06:00,64.3,45.8,29.79,North,355,0.0,0.0,51,0.00,,,0.00,Wunderground v.1.15,2013-03-03 22:06:00,
2013-03-03 14:15:00,64.4,46.9,29.79,ESE,113,0.0,1.0,53,0.00,,,0.00,Wunderground v.1.15,2013-03-03 22:15:00,
2013-03-03 14:25:00,65.3,47.7,29.79,SE,146,2.0,2.0,53,0.00,,,0.00,Wunderground v.1.15,2013-03-03 22:25:00,
2013-03-03 14:30:00,65.2,47.6,29.78,ESE,108,1.0,2.0,53,0.00,,,0.00,Wunderground v.1.15,2013-03-03 22:30:00,
2013-03-03 14:40:00,65.3,46.7,29.79,ENE,69,1.0,1.0,51,0.00,,,0.00,Wunderground v.1.15,2013-03-03 22:40:00,
2013-03-03 14:50:00,65.0,48.9,29.79,SSE,161,1.0,1.0,56,0.00,,,0.00,Wunderground v.1.15,2013-03-03 22:50:00,
2013-03-03 15:00:00,65.4,49.3,29.78,SSE,147,1.0,3.0,56,0.00,,,0.00,Wunderground v.1.15,2013-03-03 23:00:00,
2013-03-03 15:10:00,65.2,49.1,29.78,NW,307,1.0,1.0,56,0.00,,,0.00,Wunderground v.1.15,2013-03-03 23:10:00,
2013-03-03 15:20:00,65.8,50.1,29.78,ENE,74,0.0,1.0,57,0.00,,,0.00,Wunderground v.1.15,2013-03-03 23:20:00,
2013-03-03 15:30:00,65.8,48.2,29.78,ENE,60,1.0,1.0,53,0.00,,,0.00,Wunderground v.1.15,2013-03-03 23:30:00,
2013-03-03 15:40:00,66.0,49.4,29.78,East,92,1.0,1.0,55,0.00,,,0.00,Wunderground v.1.15,2013-03-03 23:40:00,
2013-03-03 15:46:00,65.6,48.5,29.78,ENE,78,0.0,1.0,54,0.00,,,0.00,Wunderground v.1.15,2013-03-03 23:46:00,
2013-03-03 15:56:00,65.7,49.6,29.77,ESE,123,0.0,2.0,56,0.00,,,0.00,Wunderground v.1.15,2013-03-03 23:56:00,
2013-03-03 16:01:00,65.6,48.5,29.78,ESE,123,0.0,0.0,54,0.00,,,0.00,Wunderground v.1.15,2013-03-04 00:01:00,
2013-03-03 16:11:00,64.5,48.4,29.78,NE,47,0.0,0.0,56,0.00,,,0.00,Wunderground v.1.15,2013-03-04 00:11:00,
2013-03-03 16:21:00,64.6,49.0,29.78,ENE,63,0.0,0.0,57,0.00,,,0.00,Wunderground v.1.15,2013-03-04 00:21:00,
2013-03-03 16:31:00,64.5,48.0,29.78,ENE,63,0.0,0.0,55,0.00,,,0.00,Wunderground v.1.15,2013-03-04 00:31:00,
2013-03-03 16:41:00,64.3,47.8,29.78,ENE,63,0.0,0.0,55,0.00,,,0.00,Wunderground v.1.15,2013-03-04 00:41:00,
2013-03-03 16:51:00,64.0,48.5,29.79,ESE,105,0.0,0.0,57,0.00,,,0.00,Wunderground v.1.15,2013-03-04 00:51:00,
2013-03-03 17:01:00,63.7,47.7,29.79,ENE,69,0.0,0.0,56,0.00,,,0.00,Wunderground v.1.15,2013-03-04 01:01:00,
2013-03-03 17:11:00,63.4,48.4,29.80,SE,128,0.0,1.0,58,0.00,,,0.00,Wunderground v.1.15,2013-03-04 01:11:00,
2013-03-03 17:16:00,63.2,46.8,29.80,SE,128,0.0,1.0,55,0.00,,,0.00,Wunderground v.1.15,2013-03-04 01:16:00,
2013-03-03 17:26:00,63.0,47.1,29.80,West,264,0.0,0.0,56,0.00,,,0.00,Wunderground v.1.15,2013-03-04 01:26:00,
2013-03-03 17:36:00,62.7,48.2,29.81,East,101,0.0,0.0,59,0.00,,,0.00,Wunderground v.1.15,2013-03-04 01:36:00,
2013-03-03 17:41:00,62.6,47.6,29.81,East,101,0.0,0.0,58,0.00,,,0.00,Wunderground v.1.15,2013-03-04 01:41:00,
2013-03-03 17:51:00,62.0,47.5,29.81,NE,42,0.0,0.0,59,0.00,,,0.00,Wunderground v.1.15,2013-03-04 01:51:00,
2013-03-03 18:01:00,61.1,47.5,29.81,ESE,115,0.0,0.0,61,0.00,,,0.00,Wunderground v.1.15,2013-03-04 02:01:00,
2013-03-03 18:11:00,60.5,47.4,29.81,SE,146,0.0,0.0,62,0.00,,,0.00,Wunderground v.1.15,2013-03-04 02:11:00,
2013-03-03 18:21:00,59.7,47.1,29.81,SE,146,0.0,0.0,63,0.00,,,0.00,Wunderground v.1.15,2013-03-04 02:21:00,
2013-03-03 18:31:00,59.0,46.8,29.82,SE,129,0.0,0.0,64,0.00,,,0.00,Wunderground v.1.15,2013-03-04 02:31:00,
2013-03-03 18:41:00,58.0,46.3,29.82,SSE,151,0.0,0.0,65,0.00,,,0.00,Wunderground v.1.15,2013-03-04 02:41:00,
2013-03-03 18:51:00,56.8,46.0,29.83,SSE,150,0.0,0.0,67,0.00,,,0.00,Wunderground v.1.15,2013-03-04 02:51:00,
2013-03-03 19:01:00,55.6,45.6,29.82,SW,219,0.0,0.0,69,0.00,,,0.00,Wunderground v.1.15,2013-03-04 03:01:00,
2013-03-03 19:11:00,54.6,45.4,29.83,ESE,103,0.0,0.0,71,0.00,,,0.00,Wunderground v.1.15,2013-03-04 03:11:00,
2013-03-03 19:16:00,54.2,45.0,29.83,East,87,0.0,0.0,71,0.00,,,0.00,Wunderground v.1.15,2013-03-04 03:16:00,
2013-03-03 19:26:00,53.6,44.8,29.83,East,87,0.0,0.0,72,0.00,,,0.00,Wunderground v.1.15,2013-03-04 03:26:00,
2013-03-03 19:35:00,52.9,44.5,29.84,East,86,0.0,0.0,73,0.00,,,0.00,Wunderground v.1.15,2013-03-04 03:35:00,
2013-03-03 19:41:00,52.6,44.5,29.83,East,86,0.0,0.0,74,0.00,,,0.00,Wunderground v.1.15,2013-03-04 03:41:00,
2013-03-03 19:51:00,52.0,44.0,29.83,East,86,0.0,0.0,74,0.00,,,0.00,Wunderground v.1.15,2013-03-04 03:51:00,
2013-03-03 20:01:00,51.5,43.5,29.84,East,86,0.0,0.0,74,0.00,,,0.00,Wunderground v.1.15,2013-03-04 04:01:00,
2013-03-03 20:06:00,51.3,43.6,29.84,East,86,0.0,0.0,75,0.00,,,0.00,Wunderground v.1.15,2013-03-04 04:06:00,
2013-03-03 20:15:00,50.7,43.4,29.84,East,86,0.0,0.0,76,0.00,,,0.00,Wunderground v.1.15,2013-03-04 04:15:00,
2013-03-03 20:26:00,50.2,43.3,29.84,SE,131,0.0,0.0,77,0.00,,,0.00,Wunderground v.1.15,2013-03-04 04:26:00,
2013-03-03 20:35:00,49.6,43.4,29.84,NE,51,0.0,0.0,79,0.00,,,0.00,Wunderground v.1.15,2013-03-04 04:35:00,
2013-03-03 20:45:00,49.1,42.9,29.84,NNW,348,0.0,1.0,79,0.00,,,0.00,Wunderground v.1.15,2013-03-04 04:45:00,
2013-03-03 20:50:00,48.8,42.9,29.85,East,82,0.0,0.0,80,0.00,,,0.00,Wunderground v.1.15,2013-03-04 04:50:00,
2013-03-03 21:00:00,48.4,42.8,29.85,East,81,0.0,0.0,81,0.00,,,0.00,Wunderground v.1.15,2013-03-04 05:00:00,
2013-03-03 21:05:00,48.2,42.6,29.85,East,81,0.0,0.0,81,0.00,,,0.00,Wunderground v.1.15,2013-03-04 05:05:00,
2013-03-03 21:10:00,48.0,42.4,29.86,East,81,0.0,0.0,81,0.00,,,0.00,Wunderground v.1.15,2013-03-04 05:10:00,
2013-03-03 21:20:00,47.7,42.5,29.86,East,80,0.0,0.0,82,0.00,,,0.00,Wunderground v.1.15,2013-03-04 05:20:00,
2013-03-03 21:30:00,47.4,42.2,29.87,East,80,0.0,0.0,82,0.00,,,0.00,Wunderground v.1.15,2013-03-04 05:30:00,
2013-03-03 21:35:00,47.2,42.0,29.87,East,80,0.0,0.0,82,0.00,,,0.00,Wunderground v.1.15,2013-03-04 05:35:00,
2013-03-03 21:42:00,47.0,41.8,29.86,East,80,0.0,0.0,82,0.00,,,0.00,Wunderground v.1.15,2013-03-04 05:42:00,
2013-03-03 21:51:00,46.7,41.8,29.87,East,80,0.0,0.0,83,0.00,,,0.00,Wunderground v.1.15,2013-03-04 05:51:00,
2013-03-03 22:01:00,46.5,41.9,29.87,East,80,0.0,0.0,84,0.00,,,0.00,Wunderground v.1.15,2013-03-04 06:01:00,
2013-03-03 22:06:00,46.4,41.8,29.88,East,80,0.0,0.0,84,0.00,,,0.00,Wunderground v.1.15,2013-03-04 06:06:00,
2013-03-03 22:16:00,46.1,41.5,29.87,East,80,0.0,0.0,84,0.00,,,0.00,Wunderground v.1.15,2013-03-04 06:16:00,
2013-03-03 22:26:00,45.8,41.2,29.87,East,80,0.0,0.0,84,0.00,,,0.00,Wunderground v.1.15,2013-03-04 06:26:00,
2013-03-03 22:36:00,45.6,41.4,29.86,East,80,0.0,0.0,85,0.00,,,0.00,Wunderground v.1.15,2013-03-04 06:36:00,
2013-03-03 22:46:00,45.3,40.7,29.86,East,80,0.0,0.0,84,0.00,,,0.00,Wunderground v.1.15,2013-03-04 06:46:00,
2013-03-03 22:51:00,45.1,40.6,29.86,East,80,0.0,0.0,84,0.00,,,0.00,Wunderground v.1.15,2013-03-04 06:51:00,
2013-03-03 23:01:00,45.0,40.8,29.86,East,80,0.0,0.0,85,0.00,,,0.00,Wunderground v.1.15,2013-03-04 07:01:00,
2013-03-03 23:11:00,44.7,40.5,29.86,East,80,0.0,0.0,85,0.00,,,0.00,Wunderground v.1.15,2013-03-04 07:11:00,
2013-03-03 23:16:00,44.6,40.4,29.86,East,80,0.0,0.0,85,0.00,,,0.00,Wunderground v.1.15,2013-03-04 07:16:00,
2013-03-03 23:26:00,44.4,40.5,29.86,East,80,0.0,0.0,86,0.00,,,0.00,Wunderground v.1.15,2013-03-04 07:26:00,
2013-03-03 23:36:00,44.2,40.3,29.87,East,80,0.0,0.0,86,0.00,,,0.00,Wunderground v.1.15,2013-03-04 07:36:00,
2013-03-03 23:46:00,44.0,40.1,29.87,East,80,0.0,0.0,86,0.00,,,0.00,Wunderground v.1.15,2013-03-04 07:46:00,
2013-03-03 23:56:00,43.8,39.9,29.86,East,80,0.0,0.0,86,0.00,,,0.00,Wunderground v.1.15,2013-03-04 07:56:00,